createdAt,value
2018-06-29T00:01:27.968Z,17.70
2018-06-29T00:03:56.639Z,17.70
2018-06-29T00:06:25.173Z,17.70
2018-06-29T00:08:53.759Z,17.70
2018-06-29T00:11:22.361Z,17.70
2018-06-29T00:13:51.010Z,17.60
2018-06-29T00:16:19.611Z,17.60
2018-06-29T00:18:48.223Z,17.60
2018-06-29T00:21:16.905Z,17.50
2018-06-29T00:23:45.567Z,17.50
2018-06-29T00:26:14.177Z,17.50
2018-06-29T00:28:42.810Z,17.50
2018-06-29T00:31:11.417Z,17.40
2018-06-29T00:33:40.059Z,17.50
2018-06-29T00:36:08.686Z,17.50
2018-06-29T00:38:37.215Z,17.50
2018-06-29T00:41:05.770Z,17.40
2018-06-29T00:43:34.421Z,17.40
2018-06-29T00:46:03.003Z,17.40
2018-06-29T00:48:31.566Z,17.40
2018-06-29T00:51:00.152Z,17.30
2018-06-29T00:53:28.715Z,17.20
2018-06-29T00:55:57.268Z,17.20
2018-06-29T00:58:25.879Z,17.20
2018-06-29T01:00:54.492Z,17.10
2018-06-29T01:03:23.054Z,17.10
2018-06-29T01:05:51.660Z,17.20
2018-06-29T01:08:20.257Z,17.20
2018-06-29T01:10:48.880Z,17.20
2018-06-29T01:13:17.510Z,17.20
2018-06-29T01:15:46.137Z,17.20
2018-06-29T01:18:14.658Z,17.20
2018-06-29T01:20:43.327Z,17.20
2018-06-29T01:23:11.868Z,17.20
2018-06-29T01:28:08.811Z,17.30
2018-06-29T01:30:37.405Z,17.30
2018-06-29T01:33:06.059Z,17.20
2018-06-29T01:35:34.694Z,17.30
2018-06-29T01:38:03.319Z,17.20
2018-06-29T01:40:31.988Z,17.20
2018-06-29T01:43:00.626Z,17.20
2018-06-29T01:45:29.391Z,17.20
2018-06-29T01:47:57.990Z,17.30
2018-06-29T01:50:26.599Z,17.40
2018-06-29T01:52:55.249Z,17.40
2018-06-29T01:55:23.859Z,17.50
2018-06-29T01:57:52.513Z,17.50
2018-06-29T02:00:21.181Z,17.50
2018-06-29T02:02:49.885Z,17.50
2018-06-29T02:05:18.534Z,17.50
2018-06-29T02:07:47.237Z,17.50
2018-06-29T02:10:15.851Z,17.50
2018-06-29T02:12:44.371Z,17.50
2018-06-29T02:15:12.949Z,17.50
2018-06-29T02:17:41.557Z,17.60
2018-06-29T02:20:10.194Z,17.50
2018-06-29T02:22:42.886Z,17.50
2018-06-29T02:25:11.501Z,17.60
2018-06-29T02:27:40.092Z,17.60
2018-06-29T02:30:08.925Z,17.70
2018-06-29T02:32:37.484Z,17.80
2018-06-29T02:35:06.184Z,17.80
2018-06-29T02:37:35.127Z,17.90
2018-06-29T02:40:03.804Z,17.80
2018-06-29T02:42:32.399Z,17.80
2018-06-29T02:45:01.095Z,17.80
2018-06-29T02:47:29.795Z,17.80
2018-06-29T02:49:59.415Z,17.80
2018-06-29T02:52:28.088Z,17.80
2018-06-29T02:54:56.688Z,17.80
2018-06-29T02:57:25.275Z,17.80
2018-06-29T02:59:53.869Z,17.70
2018-06-29T03:02:22.559Z,17.70
2018-06-29T03:04:51.096Z,17.70
2018-06-29T03:07:20.699Z,17.60
2018-06-29T03:09:49.347Z,17.60
2018-06-29T03:12:18.013Z,17.70
2018-06-29T03:14:46.647Z,17.60
2018-06-29T03:17:15.202Z,17.60
2018-06-29T03:19:43.805Z,17.60
2018-06-29T03:22:12.492Z,17.60
2018-06-29T03:24:41.047Z,17.60
2018-06-29T03:27:09.642Z,17.50
2018-06-29T03:32:06.515Z,17.50
2018-06-29T03:34:35.119Z,17.50
2018-06-29T03:37:03.787Z,17.40
2018-06-29T03:39:32.438Z,17.40
2018-06-29T03:42:01.060Z,17.40
2018-06-29T03:44:29.634Z,17.50
2018-06-29T03:46:58.350Z,17.50
2018-06-29T03:49:27.011Z,17.60
2018-06-29T03:54:24.942Z,17.40
2018-06-29T03:56:53.609Z,17.50
2018-06-29T03:59:22.222Z,17.50
2018-06-29T04:01:50.773Z,17.50
2018-06-29T04:04:19.391Z,17.60
2018-06-29T04:06:47.934Z,17.60
2018-06-29T04:09:16.521Z,17.50
2018-06-29T04:11:45.193Z,17.50
2018-06-29T04:14:13.730Z,17.60
2018-06-29T04:16:42.379Z,17.60
2018-06-29T04:19:10.990Z,17.70
2018-06-29T04:21:39.562Z,17.80
2018-06-29T04:24:12.023Z,17.80
2018-06-29T04:26:40.580Z,17.90
2018-06-29T04:29:09.249Z,17.90
2018-06-29T04:34:06.347Z,18.00
2018-06-29T04:36:34.983Z,17.90
2018-06-29T04:39:03.737Z,17.80
2018-06-29T04:41:32.301Z,17.90
2018-06-29T04:44:00.938Z,17.80
2018-06-29T04:46:29.494Z,17.80
2018-06-29T04:48:59.178Z,17.80
2018-06-29T04:51:27.827Z,17.70
2018-06-29T04:53:56.426Z,17.70
2018-06-29T04:56:25.059Z,17.80
2018-06-29T04:58:53.693Z,17.90
2018-06-29T05:01:23.409Z,17.90
2018-06-29T05:03:52.320Z,18.10
2018-06-29T05:06:20.960Z,18.10
2018-06-29T05:08:49.626Z,18.20
2018-06-29T05:11:18.301Z,18.30
2018-06-29T05:13:46.930Z,18.30
2018-06-29T05:16:15.523Z,18.40
2018-06-29T05:18:44.083Z,18.50
2018-06-29T05:23:40.992Z,18.70
2018-06-29T05:26:09.626Z,18.80
2018-06-29T05:28:38.348Z,19.20
2018-06-29T05:31:06.998Z,19.30
2018-06-29T05:33:35.629Z,19.50
2018-06-29T05:36:04.182Z,19.40
2018-06-29T05:38:32.819Z,19.40
2018-06-29T05:41:01.729Z,19.60
2018-06-29T05:43:30.348Z,19.60
2018-06-29T05:45:58.972Z,19.70
2018-06-29T05:48:27.634Z,19.70
2018-06-29T05:50:56.362Z,19.70
2018-06-29T05:53:24.948Z,19.90
2018-06-29T05:55:53.571Z,19.90
2018-06-29T05:58:22.239Z,19.80
2018-06-29T06:00:50.833Z,20.00
2018-06-29T06:03:19.500Z,20.20
2018-06-29T06:05:48.200Z,20.40
2018-06-29T06:08:16.899Z,20.50
2018-06-29T06:10:45.496Z,20.40
2018-06-29T06:13:14.245Z,20.40
2018-06-29T06:15:42.946Z,20.50
2018-06-29T06:18:11.572Z,20.40
2018-06-29T06:20:40.187Z,20.50
2018-06-29T06:23:17.341Z,20.50
2018-06-29T06:25:47.236Z,20.60
2018-06-29T06:28:16.327Z,20.50
2018-06-29T06:30:45.074Z,20.60
2018-06-29T06:33:13.733Z,20.50
2018-06-29T06:35:42.653Z,20.40
2018-06-29T06:38:11.338Z,20.50
2018-06-29T06:40:40.075Z,20.70
2018-06-29T06:43:08.951Z,21.00
2018-06-29T06:45:37.496Z,21.20
2018-06-29T06:48:06.126Z,21.40
2018-06-29T06:50:34.802Z,21.40
2018-06-29T06:53:03.415Z,21.40
2018-06-29T06:55:32.183Z,21.30
2018-06-29T06:58:00.810Z,21.30
2018-06-29T07:00:29.425Z,21.60
2018-06-29T07:02:58.119Z,21.80
2018-06-29T07:07:55.108Z,22.40
2018-06-29T07:10:23.806Z,22.50
2018-06-29T07:12:52.466Z,22.80
2018-06-29T07:17:49.546Z,23.10
2018-06-29T07:20:18.255Z,23.40
2018-06-29T07:22:46.875Z,23.40
2018-06-29T07:25:15.470Z,23.20
2018-06-29T07:27:44.113Z,23.00
2018-06-29T07:30:12.750Z,23.00
2018-06-29T07:32:41.683Z,23.00
2018-06-29T07:35:10.568Z,22.70
2018-06-29T07:37:40.559Z,22.70
2018-06-29T07:40:09.594Z,22.90
2018-06-29T07:42:38.174Z,23.20
2018-06-29T07:45:06.880Z,23.30
2018-06-29T07:47:35.532Z,23.30
2018-06-29T07:50:04.884Z,23.00
2018-06-29T07:52:33.498Z,23.10
2018-06-29T07:55:02.116Z,22.90
2018-06-29T07:57:30.666Z,22.90
2018-06-29T07:59:59.311Z,22.90
2018-06-29T08:02:27.938Z,23.00
2018-06-29T08:04:56.596Z,23.10
2018-06-29T08:07:33.335Z,23.10
2018-06-29T08:10:01.989Z,23.30
2018-06-29T08:12:30.691Z,23.40
2018-06-29T08:14:59.423Z,23.30
2018-06-29T08:17:27.998Z,23.20
2018-06-29T08:19:57.672Z,23.00
2018-06-29T08:22:26.361Z,22.90
2018-06-29T08:25:09.927Z,23.00
2018-06-29T08:27:38.825Z,23.10
2018-06-29T08:30:08.694Z,23.20
2018-06-29T08:32:37.900Z,23.30
2018-06-29T08:35:07.144Z,23.40
2018-06-29T08:37:36.255Z,23.60
2018-06-29T08:40:06.011Z,23.60
2018-06-29T08:42:35.021Z,23.60
2018-06-29T08:45:04.079Z,23.80
2018-06-29T08:47:32.973Z,24.10
2018-06-29T08:50:01.952Z,24.00
2018-06-29T08:52:30.857Z,24.10
2018-06-29T08:55:01.954Z,24.10
2018-06-29T08:57:30.848Z,24.10
2018-06-29T08:59:59.795Z,24.20
2018-06-29T09:02:28.733Z,24.30
2018-06-29T09:04:57.777Z,24.50
2018-06-29T09:07:26.699Z,24.80
2018-06-29T09:09:55.906Z,25.00
2018-06-29T09:14:53.393Z,25.90
2018-06-29T09:17:22.355Z,26.00
2018-06-29T09:19:51.316Z,26.20
2018-06-29T09:22:20.175Z,26.30
2018-06-29T09:24:49.166Z,26.20
2018-06-29T09:27:18.132Z,26.20
2018-06-29T09:29:46.839Z,26.30
2018-06-29T09:32:15.459Z,26.20
2018-06-29T09:34:44.076Z,26.20
2018-06-29T09:37:12.736Z,26.30
2018-06-29T09:39:41.367Z,26.20
2018-06-29T09:42:09.994Z,26.10
2018-06-29T09:44:38.686Z,26.20
2018-06-29T09:47:10.809Z,26.30
2018-06-29T09:49:39.387Z,26.30
2018-06-29T09:52:08.060Z,26.20
2018-06-29T09:54:36.698Z,26.10
2018-06-29T09:57:12.406Z,26.30
2018-06-29T09:59:40.999Z,26.20
2018-06-29T10:02:09.683Z,26.30
2018-06-29T10:04:38.324Z,26.40
2018-06-29T10:07:07.196Z,26.40
2018-06-29T10:09:35.868Z,26.00
2018-06-29T10:12:04.549Z,25.90
2018-06-29T10:14:33.207Z,26.00
2018-06-29T10:17:01.831Z,26.10
2018-06-29T10:19:30.589Z,26.30
2018-06-29T10:21:59.253Z,26.70
2018-06-29T10:24:27.871Z,27.00
2018-06-29T10:26:56.516Z,27.10
2018-06-29T10:29:25.139Z,27.40
2018-06-29T10:31:53.741Z,27.60
2018-06-29T10:34:22.439Z,27.50
2018-06-29T10:36:51.136Z,27.20
2018-06-29T10:39:19.878Z,27.20
2018-06-29T10:41:49.573Z,26.80
2018-06-29T10:44:18.198Z,26.80
2018-06-29T10:46:46.797Z,26.30
2018-06-29T10:49:15.544Z,26.00
2018-06-29T10:51:46.269Z,26.10
2018-06-29T10:54:19.939Z,26.20
2018-06-29T10:56:48.630Z,26.30
2018-06-29T10:59:17.210Z,26.10
2018-06-29T11:01:45.828Z,26.30
2018-06-29T11:04:15.457Z,26.50
2018-06-29T11:06:46.185Z,26.40
2018-06-29T11:11:44.574Z,26.70
2018-06-29T11:14:13.282Z,26.90
2018-06-29T11:16:41.946Z,27.20
2018-06-29T11:19:11.607Z,27.20
2018-06-29T11:21:40.165Z,27.20
2018-06-29T11:24:08.857Z,27.00
2018-06-29T11:26:38.507Z,27.20
2018-06-29T11:29:08.290Z,27.20
2018-06-29T11:31:36.999Z,27.30
2018-06-29T11:34:07.880Z,27.00
2018-06-29T11:36:36.726Z,26.90
2018-06-29T11:39:08.448Z,26.80
2018-06-29T11:41:38.144Z,26.60
2018-06-29T11:44:07.774Z,26.50
2018-06-29T11:46:38.785Z,26.80
2018-06-29T11:49:09.116Z,27.00
2018-06-29T11:51:37.996Z,27.20
2018-06-29T11:54:07.061Z,27.40
2018-06-29T11:56:36.307Z,27.70
2018-06-29T11:59:07.989Z,27.80
2018-06-29T12:01:36.575Z,27.70
2018-06-29T12:04:05.221Z,27.70
2018-06-29T12:06:33.806Z,27.80
2018-06-29T12:09:02.425Z,27.80
2018-06-29T12:11:30.982Z,28.10
2018-06-29T12:13:59.631Z,28.20
2018-06-29T12:16:28.143Z,28.40
2018-06-29T12:18:56.779Z,28.60
2018-06-29T12:21:25.534Z,28.80
2018-06-29T12:23:54.250Z,28.90
2018-06-29T12:26:22.917Z,28.50
2018-06-29T12:28:51.535Z,28.70
2018-06-29T12:31:20.142Z,28.80
2018-06-29T12:38:45.266Z,28.60
2018-06-29T12:41:13.953Z,28.70
2018-06-29T12:43:43.194Z,28.80
2018-06-29T12:46:11.924Z,28.60
2018-06-29T12:48:40.429Z,28.60
2018-06-29T12:53:37.375Z,28.80
2018-06-29T12:56:05.942Z,29.00
2018-06-29T12:58:34.628Z,29.00
2018-06-29T13:01:04.273Z,29.00
2018-06-29T13:03:33.567Z,29.30
2018-06-29T13:06:02.224Z,29.60
2018-06-29T13:08:30.852Z,30.20
2018-06-29T13:10:59.445Z,30.60
2018-06-29T13:13:28.064Z,30.90
2018-06-29T13:15:56.760Z,31.10
2018-06-29T13:18:25.455Z,31.00
2018-06-29T13:20:54.744Z,30.70
2018-06-29T13:23:23.565Z,30.40
2018-06-29T13:25:52.159Z,30.20
2018-06-29T13:28:20.890Z,30.10
2018-06-29T13:30:49.484Z,30.20
2018-06-29T13:33:18.074Z,30.20
2018-06-29T13:35:46.667Z,30.30
2018-06-29T13:38:15.237Z,30.40
2018-06-29T13:40:43.823Z,30.30
2018-06-29T13:43:14.082Z,30.30
2018-06-29T13:45:42.795Z,30.40
2018-06-29T13:48:11.509Z,30.60
2018-06-29T13:50:40.174Z,30.80
2018-06-29T13:53:08.861Z,31.00
2018-06-29T13:55:37.565Z,31.10
2018-06-29T13:58:06.196Z,31.20
2018-06-29T14:00:34.869Z,31.10
2018-06-29T14:03:03.636Z,31.20
2018-06-29T14:05:33.386Z,31.20
2018-06-29T14:08:01.987Z,31.40
2018-06-29T14:10:30.749Z,31.40
2018-06-29T14:12:59.427Z,31.40
2018-06-29T14:15:28.110Z,30.90
2018-06-29T14:17:57.022Z,30.70
2018-06-29T14:20:25.650Z,30.80
2018-06-29T14:22:54.281Z,30.90
2018-06-29T14:25:22.872Z,31.00
2018-06-29T14:27:52.578Z,31.40
2018-06-29T14:32:49.630Z,31.70
2018-06-29T14:37:46.515Z,32.00
2018-06-29T14:40:15.188Z,32.30
2018-06-29T14:42:43.767Z,32.50
2018-06-29T14:47:40.950Z,32.80
2018-06-29T14:50:09.595Z,32.70
2018-06-29T14:55:07.469Z,32.10
2018-06-29T14:57:36.103Z,31.90
2018-06-29T15:00:06.554Z,31.90
2018-06-29T15:02:35.179Z,31.80
2018-06-29T15:05:03.941Z,31.70
2018-06-29T15:07:32.556Z,31.60
2018-06-29T15:10:01.283Z,31.40
2018-06-29T15:12:30.050Z,31.40
2018-06-29T15:14:58.670Z,31.40
2018-06-29T15:17:27.202Z,31.40
2018-06-29T15:19:55.879Z,31.30
2018-06-29T15:22:24.470Z,31.30
2018-06-29T15:24:54.013Z,31.20
2018-06-29T15:27:22.635Z,31.40
2018-06-29T15:29:52.423Z,31.40
2018-06-29T15:32:20.999Z,31.60
2018-06-29T15:34:49.619Z,31.70
2018-06-29T15:37:18.288Z,31.90
2018-06-29T15:39:46.934Z,32.00
2018-06-29T15:42:16.198Z,32.20
2018-06-29T15:44:44.842Z,32.30
2018-06-29T15:47:13.797Z,32.30
2018-06-29T15:49:42.871Z,32.20
2018-06-29T15:52:11.486Z,32.10
2018-06-29T15:54:40.119Z,32.10
2018-06-29T15:57:10.055Z,32.00
2018-06-29T15:59:38.680Z,32.00
2018-06-29T16:02:07.363Z,32.00
2018-06-29T16:04:36.047Z,32.20
2018-06-29T16:07:05.213Z,32.10
2018-06-29T16:09:33.919Z,32.10
2018-06-29T16:14:30.857Z,31.90
2018-06-29T16:16:59.549Z,31.90
2018-06-29T16:19:28.167Z,31.90
2018-06-29T16:21:56.820Z,32.10
2018-06-29T16:24:25.503Z,32.80
2018-06-29T16:26:54.241Z,33.00
2018-06-29T16:29:22.902Z,33.30
2018-06-29T16:31:51.571Z,34.20
2018-06-29T16:34:20.186Z,35.10
2018-06-29T16:36:48.775Z,36.10
2018-06-29T16:39:17.488Z,36.80
2018-06-29T16:41:46.176Z,37.20
2018-06-29T16:44:15.077Z,37.50
2018-06-29T16:46:44.093Z,38.00
2018-06-29T16:49:13.047Z,38.30
2018-06-29T16:51:41.984Z,37.80
2018-06-29T16:54:10.933Z,37.80
2018-06-29T16:56:39.878Z,37.60
2018-06-29T16:59:09.440Z,37.60
2018-06-29T17:01:38.381Z,37.00
2018-06-29T17:04:07.078Z,36.20
2018-06-29T17:06:35.666Z,35.70
2018-06-29T17:09:05.994Z,35.10
2018-06-29T17:11:34.590Z,34.30
2018-06-29T17:14:03.332Z,34.10
2018-06-29T17:16:31.918Z,33.90
2018-06-29T17:19:00.672Z,33.80
2018-06-29T17:21:29.234Z,34.00
2018-06-29T17:23:58.052Z,34.10
2018-06-29T17:26:26.575Z,34.20
2018-06-29T17:28:55.286Z,34.20
2018-06-29T17:31:23.901Z,34.40
2018-06-29T17:33:52.481Z,34.40
2018-06-29T17:36:21.099Z,34.30
2018-06-29T17:38:49.723Z,34.40
2018-06-29T17:41:18.402Z,34.60
2018-06-29T17:43:47.144Z,34.80
2018-06-29T17:46:15.868Z,34.50
2018-06-29T17:48:44.533Z,34.50
2018-06-29T17:51:13.191Z,34.50
2018-06-29T17:53:41.790Z,34.70
2018-06-29T17:56:10.442Z,34.80
2018-06-29T17:58:39.119Z,34.50
2018-06-29T18:01:08.145Z,34.50
2018-06-29T18:03:36.818Z,34.60
2018-06-29T18:06:05.635Z,34.70
2018-06-29T18:08:35.283Z,34.70
2018-06-29T18:11:03.990Z,34.70
2018-06-29T18:13:32.639Z,34.40
2018-06-29T18:16:01.330Z,34.20
2018-06-29T18:18:29.904Z,33.80
2018-06-29T18:20:58.532Z,33.70
2018-06-29T18:23:28.547Z,33.40
2018-06-29T18:25:57.113Z,32.60
2018-06-29T18:28:25.783Z,31.80
2018-06-29T18:30:54.409Z,31.10
2018-06-29T18:33:22.922Z,30.30
2018-06-29T18:35:51.478Z,29.30
2018-06-29T18:38:20.144Z,28.90
2018-06-29T18:40:48.887Z,28.30
2018-06-29T18:43:17.485Z,27.60
2018-06-29T18:45:46.100Z,27.00
2018-06-29T18:48:14.766Z,26.60
2018-06-29T18:50:43.379Z,26.20
2018-06-29T18:53:12.032Z,25.90
2018-06-29T18:55:40.726Z,25.60
2018-06-29T18:58:09.462Z,25.30
2018-06-29T19:00:37.999Z,25.20
2018-06-29T19:03:06.821Z,24.80
2018-06-29T19:05:35.434Z,24.50
2018-06-29T19:08:04.066Z,24.30
2018-06-29T19:10:32.804Z,24.10
2018-06-29T19:13:01.508Z,23.90
2018-06-29T19:15:30.089Z,23.70
2018-06-29T19:17:58.814Z,23.50
2018-06-29T19:20:27.456Z,23.30
2018-06-29T19:22:56.088Z,23.10
2018-06-29T19:25:24.769Z,23.00
2018-06-29T19:27:54.426Z,22.90
2018-06-29T19:30:23.037Z,22.80
2018-06-29T19:32:51.829Z,22.80
2018-06-29T19:35:20.567Z,22.70
2018-06-29T19:37:49.255Z,22.70
2018-06-29T19:40:17.882Z,22.60
2018-06-29T19:42:46.567Z,22.50
2018-06-29T19:45:15.284Z,22.40
2018-06-29T19:47:43.920Z,22.30
2018-06-29T19:50:12.568Z,22.30
2018-06-29T19:52:41.078Z,22.20
2018-06-29T19:55:10.780Z,22.10
2018-06-29T19:57:39.404Z,22.00
2018-06-29T20:00:08.094Z,21.80
2018-06-29T20:02:36.660Z,21.80
2018-06-29T20:05:05.572Z,21.80
2018-06-29T20:07:34.223Z,21.80
2018-06-29T20:10:02.894Z,21.80
2018-06-29T20:12:31.438Z,21.70
2018-06-29T20:15:00.184Z,21.50
2018-06-29T20:17:28.764Z,21.40
2018-06-29T20:19:57.422Z,21.30
2018-06-29T20:22:26.063Z,21.30
2018-06-29T20:24:55.753Z,21.30
2018-06-29T20:27:24.403Z,21.30
2018-06-29T20:29:53.020Z,21.20
2018-06-29T20:32:21.964Z,21.30
2018-06-29T20:34:51.724Z,21.30
2018-06-29T20:37:20.465Z,21.30
2018-06-29T20:39:49.084Z,21.30
2018-06-29T20:42:17.729Z,21.20
2018-06-29T20:44:46.411Z,21.10
2018-06-29T20:47:15.679Z,21.10
2018-06-29T20:49:44.407Z,21.00
2018-06-29T20:52:13.111Z,21.00
2018-06-29T20:54:41.695Z,20.90
2018-06-29T20:57:12.450Z,20.90
2018-06-29T20:59:41.080Z,21.00
2018-06-29T21:02:09.904Z,21.00
2018-06-29T21:04:38.617Z,20.90
2018-06-29T21:09:35.800Z,20.70
2018-06-29T21:12:04.593Z,20.60
2018-06-29T21:14:33.266Z,20.50
2018-06-29T21:17:01.882Z,20.30
2018-06-29T21:19:31.282Z,20.20
2018-06-29T21:22:04.016Z,20.10
2018-06-29T21:24:32.706Z,20.10
2018-06-29T21:27:01.427Z,20.10
2018-06-29T21:29:30.466Z,20.10
2018-06-29T21:31:59.080Z,20.10
2018-06-29T21:34:27.917Z,20.00
2018-06-29T21:36:56.794Z,20.00
2018-06-29T21:39:25.627Z,20.00
2018-06-29T21:41:54.537Z,20.00
2018-06-29T21:46:51.616Z,19.80
2018-06-29T21:49:20.432Z,19.90
2018-06-29T21:51:49.195Z,19.90
2018-06-29T21:54:21.581Z,19.90
2018-06-29T21:56:54.511Z,19.80
2018-06-29T21:59:23.221Z,19.80
2018-06-29T22:04:20.373Z,19.60
2018-06-29T22:06:48.994Z,19.50
2018-06-29T22:09:17.632Z,19.40
2018-06-29T22:11:46.263Z,19.50
2018-06-29T22:14:14.911Z,19.50
2018-06-29T22:16:43.517Z,19.50
2018-06-29T22:19:12.890Z,19.50
2018-06-29T22:21:41.521Z,19.50
2018-06-29T22:24:10.242Z,19.50
2018-06-29T22:26:38.831Z,19.40
2018-06-29T22:29:07.486Z,19.30
2018-06-29T22:31:36.141Z,19.10
2018-06-29T22:34:04.836Z,19.00
2018-06-29T22:36:33.472Z,19.00
2018-06-29T22:39:02.072Z,19.00
2018-06-29T22:41:30.697Z,19.00
2018-06-29T22:43:59.297Z,18.90
2018-06-29T22:46:27.962Z,18.90
2018-06-29T22:48:56.628Z,18.90
2018-06-29T22:51:25.315Z,18.90
2018-06-29T22:53:53.967Z,18.90
2018-06-29T22:56:22.918Z,18.90
2018-06-29T22:58:51.529Z,18.70
2018-06-29T23:01:20.295Z,18.70
2018-06-29T23:03:53.888Z,18.70
2018-06-29T23:06:23.351Z,18.70
2018-06-29T23:08:51.977Z,18.70
2018-06-29T23:11:20.680Z,18.60
2018-06-29T23:13:49.341Z,18.70
2018-06-29T23:16:18.343Z,18.50
2018-06-29T23:18:46.976Z,18.30
2018-06-29T23:21:15.592Z,18.30
2018-06-29T23:23:44.258Z,18.30
2018-06-29T23:26:13.908Z,18.30
2018-06-29T23:28:42.476Z,18.30
2018-06-29T23:31:11.163Z,18.30
2018-06-29T23:33:39.810Z,18.20
2018-06-29T23:36:08.454Z,18.30
2018-06-29T23:38:37.190Z,18.20
2018-06-29T23:41:05.925Z,18.20
2018-06-29T23:43:34.595Z,18.10
2018-06-29T23:46:03.209Z,18.10
2018-06-29T23:48:31.838Z,18.10
2018-06-29T23:51:00.383Z,18.00
2018-06-29T23:53:28.990Z,18.10
2018-06-29T23:55:57.546Z,18.00
2018-06-29T23:58:26.192Z,18.10
